Time;durP1;ratioP1;P1;durP2;ratioP2;P2;SDS_P1;SDS_P2;PMS_P1;PMS_P2;Temp;Humidity;BMP_temperature;BMP_pressure;BME280_temperature;BME280_humidity;BME280_pressure;Samples;Min_cycle;Max_cycle;Signal;HPM_P1;HPM_P2
2023/07/26 00:00:59;;;;;;;12.30;8.77;;;;;;;;;;4958519;28;20058;-92
2023/07/26 00:03:26;;;;;;;10.32;8.75;;;;;;;;;;4974117;28;20043;-92
2023/07/26 00:05:53;;;;;;;13.68;9.18;;;;;;;;;;4975130;28;20046;-92
2023/07/26 00:08:21;;;;;;;10.43;8.20;;;;;;;;;;4977432;28;20043;-93
2023/07/26 00:10:51;;;;;;;12.38;9.73;;;;;;;;;;4960433;28;20055;-93
2023/07/26 00:13:18;;;;;;;8.27;7.25;;;;;;;;;;4942741;28;20062;-93
2023/07/26 00:15:46;;;;;;;8.88;7.88;;;;;;;;;;4965333;28;20452;-92
2023/07/26 00:18:22;;;;;;;10.65;8.38;;;;;;;;;;4953387;28;20053;-93
2023/07/26 00:20:49;;;;;;;12.65;9.40;;;;;;;;;;4985494;28;20054;-93
2023/07/26 00:23:16;;;;;;;18.42;10.05;;;;;;;;;;4965290;28;20050;-93
2023/07/26 00:25:44;;;;;;;13.65;9.98;;;;;;;;;;4942835;28;20061;-93
2023/07/26 00:28:11;;;;;;;12.70;8.50;;;;;;;;;;4975677;28;20047;-92
2023/07/26 00:30:41;;;;;;;9.73;8.73;;;;;;;;;;4941462;28;20051;-91
2023/07/26 00:33:14;;;;;;;11.52;8.27;;;;;;;;;;4944557;28;20053;-93
2023/07/26 00:35:43;;;;;;;10.68;8.68;;;;;;;;;;4968759;28;20047;-90
2023/07/26 00:38:11;;;;;;;11.68;9.45;;;;;;;;;;4946567;28;20055;-92
2023/07/26 00:40:39;;;;;;;11.30;8.45;;;;;;;;;;4974437;28;20058;-92
2023/07/26 00:43:07;;;;;;;12.75;9.82;;;;;;;;;;4951563;28;20082;-93
2023/07/26 00:45:37;;;;;;;11.15;8.52;;;;;;;;;;4968955;28;20042;-91
2023/07/26 00:48:06;;;;;;;12.57;9.60;;;;;;;;;;4976109;28;20049;-90
2023/07/26 00:50:36;;;;;;;15.13;9.30;;;;;;;;;;4959978;28;20058;-92
2023/07/26 00:53:03;;;;;;;10.93;8.73;;;;;;;;;;4967696;28;20062;-92
2023/07/26 00:55:31;;;;;;;11.98;10.68;;;;;;;;;;4967886;28;20416;-92
2023/07/26 00:57:59;;;;;;;14.02;11.48;;;;;;;;;;4956178;28;20066;-93
2023/07/26 01:00:27;;;;;;;16.05;10.65;;;;;;;;;;4943399;28;20038;-91
2023/07/26 01:02:54;;;;;;;14.90;10.52;;;;;;;;;;4965070;28;20066;-93
2023/07/26 01:05:25;;;;;;;11.20;9.98;;;;;;;;;;4983073;28;20504;-93
2023/07/26 01:08:01;;;;;;;12.85;11.27;;;;;;;;;;4963365;28;20054;-93
2023/07/26 01:10:36;;;;;;;11.40;10.20;;;;;;;;;;4956684;28;20125;-92
2023/07/26 01:13:08;;;;;;;13.55;9.27;;;;;;;;;;4951553;28;20054;-93
2023/07/26 01:15:38;;;;;;;13.82;9.40;;;;;;;;;;4982786;28;20049;-93
2023/07/26 01:18:10;;;;;;;10.98;8.57;;;;;;;;;;4964818;28;20074;-92
2023/07/26 01:20:37;;;;;;;13.98;10.07;;;;;;;;;;4959447;28;20046;-93
2023/07/26 01:23:07;;;;;;;11.98;9.25;;;;;;;;;;4978852;28;20054;-92
2023/07/26 01:25:34;;;;;;;10.68;9.57;;;;;;;;;;4945496;28;20413;-92
2023/07/26 01:28:04;;;;;;;11.82;8.63;;;;;;;;;;4972420;28;20046;-93
2023/07/26 01:30:33;;;;;;;10.80;8.52;;;;;;;;;;4959423;28;20506;-93
2023/07/26 01:33:04;;;;;;;8.82;7.60;;;;;;;;;;4961631;28;20054;-94
2023/07/26 01:35:35;;;;;;;11.63;7.85;;;;;;;;;;4964883;28;20046;-92
2023/07/26 01:38:06;;;;;;;8.85;7.68;;;;;;;;;;4946590;28;20059;-92
2023/07/26 01:40:36;;;;;;;10.80;9.40;;;;;;;;;;4966489;28;20526;-92
2023/07/26 01:43:04;;;;;;;8.88;7.97;;;;;;;;;;4965602;28;20066;-93
2023/07/26 01:45:31;;;;;;;8.75;7.88;;;;;;;;;;4956284;28;20039;-92
2023/07/26 01:48:01;;;;;;;13.05;9.77;;;;;;;;;;4946044;28;20050;-92
2023/07/26 01:50:32;;;;;;;11.85;8.85;;;;;;;;;;4962181;28;20179;-92
2023/07/26 01:53:02;;;;;;;8.63;7.25;;;;;;;;;;4968589;28;20074;-92
2023/07/26 01:55:31;;;;;;;8.35;7.30;;;;;;;;;;4948557;28;20050;-93
2023/07/26 01:57:58;;;;;;;9.63;8.07;;;;;;;;;;4970916;28;20059;-93
2023/07/26 02:00:27;;;;;;;10.63;7.90;;;;;;;;;;4973676;28;20047;-92
2023/07/26 02:02:54;;;;;;;12.73;8.25;;;;;;;;;;4954906;28;20059;-93
2023/07/26 02:05:25;;;;;;;9.02;7.95;;;;;;;;;;4942535;28;20051;-92
2023/07/26 02:07:52;;;;;;;9.02;6.45;;;;;;;;;;4941012;28;20054;-92
2023/07/26 02:10:23;;;;;;;9.77;8.10;;;;;;;;;;4974503;28;20038;-91
2023/07/26 02:12:55;;;;;;;7.68;6.82;;;;;;;;;;4998804;28;20279;-91
2023/07/26 02:15:22;;;;;;;10.27;8.70;;;;;;;;;;4988003;28;20054;-91
2023/07/26 02:17:49;;;;;;;8.43;7.53;;;;;;;;;;4974964;28;20051;-93
2023/07/26 02:20:17;;;;;;;10.23;7.32;;;;;;;;;;4955164;28;20049;-92
2023/07/26 02:22:47;;;;;;;9.85;7.28;;;;;;;;;;4951571;28;20051;-92
2023/07/26 02:25:14;;;;;;;9.27;7.13;;;;;;;;;;4958847;28;20050;-92
2023/07/26 02:27:42;;;;;;;8.35;6.85;;;;;;;;;;4952133;28;20047;-92
2023/07/26 02:30:13;;;;;;;8.98;8.10;;;;;;;;;;4949935;28;20054;-92
2023/07/26 02:32:40;;;;;;;8.48;7.63;;;;;;;;;;4962581;28;20047;-92
2023/07/26 02:35:09;;;;;;;10.52;7.38;;;;;;;;;;4949736;28;20050;-92
2023/07/26 02:37:38;;;;;;;10.30;6.55;;;;;;;;;;4946321;28;20659;-92
2023/07/26 02:40:07;;;;;;;9.00;7.43;;;;;;;;;;4936661;28;20065;-92
2023/07/26 02:42:36;;;;;;;12.20;7.40;;;;;;;;;;4955095;28;20050;-92
2023/07/26 02:45:04;;;;;;;8.98;7.20;;;;;;;;;;4956628;28;20057;-91
2023/07/26 02:47:33;;;;;;;9.90;7.38;;;;;;;;;;4953479;28;20061;-93
2023/07/26 02:50:03;;;;;;;8.13;7.18;;;;;;;;;;4955074;28;20061;-92
2023/07/26 02:52:31;;;;;;;9.60;6.53;;;;;;;;;;4972859;28;20057;-93
2023/07/26 02:55:01;;;;;;;9.00;7.22;;;;;;;;;;4966765;28;20049;-93
2023/07/26 02:57:29;;;;;;;9.98;7.60;;;;;;;;;;4963781;28;20047;-93
2023/07/26 02:59:59;;;;;;;7.15;6.45;;;;;;;;;;4972027;28;20063;-93
2023/07/26 03:02:28;;;;;;;11.93;6.95;;;;;;;;;;4972409;28;20054;-94
2023/07/26 03:04:57;;;;;;;7.63;6.60;;;;;;;;;;4970705;28;20043;-92
2023/07/26 03:07:27;;;;;;;10.35;6.20;;;;;;;;;;4971733;28;20050;-92
2023/07/26 03:09:54;;;;;;;10.48;7.22;;;;;;;;;;4962093;28;20047;-92
2023/07/26 03:12:22;;;;;;;7.70;6.95;;;;;;;;;;4973580;28;20075;-92
2023/07/26 03:14:52;;;;;;;8.45;7.18;;;;;;;;;;4957303;28;20412;-92
2023/07/26 03:17:18;;;;;;;10.65;7.30;;;;;;;;;;4971850;28;20397;-92
2023/07/26 03:19:46;;;;;;;10.13;8.57;;;;;;;;;;4942648;28;20051;-92
2023/07/26 03:22:14;;;;;;;8.82;7.72;;;;;;;;;;4960992;28;20053;-93
2023/07/26 03:24:42;;;;;;;11.45;7.43;;;;;;;;;;4957337;28;20058;-91
2023/07/26 03:27:09;;;;;;;8.13;7.32;;;;;;;;;;4972926;28;20417;-92
2023/07/26 03:29:36;;;;;;;10.90;9.40;;;;;;;;;;4944960;28;20057;-93
2023/07/26 03:32:04;;;;;;;8.43;7.55;;;;;;;;;;4966608;28;20050;-94
2023/07/26 03:34:32;;;;;;;12.07;8.23;;;;;;;;;;4944204;28;20051;-93
2023/07/26 03:36:59;;;;;;;11.90;8.38;;;;;;;;;;4976269;28;20058;-93
2023/07/26 03:39:31;;;;;;;8.70;6.72;;;;;;;;;;4955790;28;20058;-93
2023/07/26 03:42:01;;;;;;;12.30;8.45;;;;;;;;;;4958834;28;20058;-93
2023/07/26 03:44:28;;;;;;;9.63;8.55;;;;;;;;;;4963928;28;20046;-93
2023/07/26 03:46:58;;;;;;;10.43;8.73;;;;;;;;;;4953944;28;20061;-94
2023/07/26 03:49:26;;;;;;;13.43;8.70;;;;;;;;;;4975307;28;20412;-92
2023/07/26 03:51:53;;;;;;;10.18;8.90;;;;;;;;;;4967141;28;20057;-93
2023/07/26 03:54:29;;;;;;;14.75;10.45;;;;;;;;;;4958269;28;20042;-93
2023/07/26 03:56:59;;;;;;;11.75;9.13;;;;;;;;;;4964000;28;20051;-93
2023/07/26 03:59:29;;;;;;;13.20;10.05;;;;;;;;;;4957216;28;20062;-93
2023/07/26 04:01:56;;;;;;;11.48;9.95;;;;;;;;;;4956737;28;20054;-92
2023/07/26 04:04:24;;;;;;;10.73;9.35;;;;;;;;;;4969681;28;20058;-92
2023/07/26 04:06:51;;;;;;;13.10;10.15;;;;;;;;;;4969508;28;20050;-92
2023/07/26 04:09:19;;;;;;;12.15;10.95;;;;;;;;;;4976069;28;20053;-92
2023/07/26 04:11:53;;;;;;;14.35;8.10;;;;;;;;;;4966844;28;20512;-93
2023/07/26 04:14:20;;;;;;;11.32;9.65;;;;;;;;;;4969456;28;20058;-93
2023/07/26 04:16:50;;;;;;;10.48;9.38;;;;;;;;;;4978232;28;20527;-93
2023/07/26 04:19:49;;;;;;;13.35;10.73;;;;;;;;;;4978981;28;20058;-92
2023/07/26 04:22:16;;;;;;;11.38;8.80;;;;;;;;;;4961037;28;20043;-92
2023/07/26 04:24:44;;;;;;;11.75;9.35;;;;;;;;;;4992833;28;20054;-92
2023/07/26 04:27:15;;;;;;;10.85;9.23;;;;;;;;;;4961156;28;20059;-91
2023/07/26 04:29:46;;;;;;;10.07;8.70;;;;;;;;;;4981541;28;20054;-93
2023/07/26 04:32:13;;;;;;;12.93;9.88;;;;;;;;;;4978334;28;20070;-93
2023/07/26 04:34:43;;;;;;;11.30;10.20;;;;;;;;;;4953987;28;20055;-94
2023/07/26 04:37:10;;;;;;;11.43;10.15;;;;;;;;;;4970408;28;20042;-93
2023/07/26 04:39:37;;;;;;;12.50;10.30;;;;;;;;;;4983236;28;20049;-92
2023/07/26 04:42:05;;;;;;;10.07;7.88;;;;;;;;;;4954664;28;20055;-92
2023/07/26 04:44:34;;;;;;;11.88;10.23;;;;;;;;;;4974563;28;20057;-94
2023/07/26 04:47:01;;;;;;;11.35;9.68;;;;;;;;;;4979005;28;20046;-92
2023/07/26 04:49:29;;;;;;;13.20;10.50;;;;;;;;;;4968607;28;20061;-92
2023/07/26 04:51:56;;;;;;;11.70;10.50;;;;;;;;;;4993948;28;20050;-93
2023/07/26 04:54:24;;;;;;;11.18;9.93;;;;;;;;;;4971824;28;20054;-93
2023/07/26 04:56:51;;;;;;;11.48;9.57;;;;;;;;;;4963775;28;20050;-93
2023/07/26 04:59:18;;;;;;;10.57;8.60;;;;;;;;;;4963826;28;20043;-93
2023/07/26 05:01:47;;;;;;;10.75;8.48;;;;;;;;;;4964686;28;20448;-91
2023/07/26 05:04:18;;;;;;;11.10;8.95;;;;;;;;;;4959067;28;20042;-92
2023/07/26 05:06:45;;;;;;;10.43;8.18;;;;;;;;;;4950885;28;20046;-92
2023/07/26 05:09:15;;;;;;;9.38;8.48;;;;;;;;;;4983873;28;20407;-91
2023/07/26 05:11:42;;;;;;;11.52;8.80;;;;;;;;;;4965904;28;20051;-93
2023/07/26 05:14:09;;;;;;;8.93;8.02;;;;;;;;;;4946655;28;20062;-92
2023/07/26 05:16:37;;;;;;;9.73;8.73;;;;;;;;;;4944698;28;20654;-92
2023/07/26 05:19:05;;;;;;;10.25;9.25;;;;;;;;;;4956533;28;20058;-93
2023/07/26 05:21:33;;;;;;;11.50;10.32;;;;;;;;;;4956604;28;20058;-93
2023/07/26 05:24:00;;;;;;;9.65;8.65;;;;;;;;;;4972541;28;20055;-93
2023/07/26 05:26:28;;;;;;;9.75;8.15;;;;;;;;;;4962022;28;20046;-91
2023/07/26 05:28:55;;;;;;;12.10;7.97;;;;;;;;;;4982651;28;20054;-94
2023/07/26 05:31:22;;;;;;;12.18;8.77;;;;;;;;;;4980163;28;20847;-92
2023/07/26 05:33:50;;;;;;;9.43;8.52;;;;;;;;;;4964786;28;20055;-94
2023/07/26 05:36:19;;;;;;;8.80;7.88;;;;;;;;;;4969483;28;20047;-93
2023/07/26 05:38:46;;;;;;;10.25;8.60;;;;;;;;;;4966104;28;20054;-93
2023/07/26 05:41:18;;;;;;;8.73;7.88;;;;;;;;;;4962303;28;20053;-93
2023/07/26 05:43:46;;;;;;;9.40;8.45;;;;;;;;;;4967642;28;20061;-94
2023/07/26 05:46:15;;;;;;;10.55;9.23;;;;;;;;;;4954965;28;20050;-93
2023/07/26 05:48:43;;;;;;;10.70;9.07;;;;;;;;;;4976271;28;20047;-93
2023/07/26 05:51:12;;;;;;;15.15;9.02;;;;;;;;;;4963577;28;20058;-92
2023/07/26 05:53:41;;;;;;;13.13;8.57;;;;;;;;;;4976924;28;20047;-92
2023/07/26 05:56:08;;;;;;;14.93;8.88;;;;;;;;;;4950928;28;20046;-91
2023/07/26 05:58:38;;;;;;;11.70;9.30;;;;;;;;;;4981529;28;20047;-93
2023/07/26 06:01:05;;;;;;;15.65;8.65;;;;;;;;;;4948002;28;20055;-93
2023/07/26 06:03:33;;;;;;;13.63;7.45;;;;;;;;;;4973282;28;20061;-93
2023/07/26 06:06:03;;;;;;;9.93;8.73;;;;;;;;;;4977527;28;20053;-93
2023/07/26 06:08:32;;;;;;;9.05;8.02;;;;;;;;;;4979661;28;20046;-92
2023/07/26 06:11:00;;;;;;;11.32;8.00;;;;;;;;;;4988359;28;20058;-92
2023/07/26 06:13:31;;;;;;;9.40;7.50;;;;;;;;;;4975222;28;20433;-92
2023/07/26 06:16:01;;;;;;;8.90;8.00;;;;;;;;;;4992188;28;20053;-92
2023/07/26 06:18:28;;;;;;;12.93;8.98;;;;;;;;;;4975098;28;20043;-93
2023/07/26 06:20:56;;;;;;;10.15;8.55;;;;;;;;;;4984399;28;20043;-92
2023/07/26 06:23:23;;;;;;;7.43;6.72;;;;;;;;;;4989665;28;20055;-93
2023/07/26 06:25:50;;;;;;;9.98;7.60;;;;;;;;;;4966825;28;20047;-93
2023/07/26 06:28:19;;;;;;;8.80;8.00;;;;;;;;;;4991457;28;20050;-93
2023/07/26 06:30:49;;;;;;;10.88;6.82;;;;;;;;;;4962673;28;20058;-93
2023/07/26 06:33:19;;;;;;;11.57;7.93;;;;;;;;;;4990149;28;20054;-93
2023/07/26 06:35:53;;;;;;;11.98;7.70;;;;;;;;;;4966465;28;20050;-92
2023/07/26 06:38:21;;;;;;;10.68;8.15;;;;;;;;;;4996856;28;20058;-94
2023/07/26 06:40:49;;;;;;;9.52;7.40;;;;;;;;;;4986092;28;20051;-92
2023/07/26 06:43:19;;;;;;;9.65;8.00;;;;;;;;;;4996361;28;20053;-93
2023/07/26 06:45:50;;;;;;;10.95;8.23;;;;;;;;;;4957100;28;20062;-93
2023/07/26 06:48:18;;;;;;;12.15;8.35;;;;;;;;;;4987482;28;20054;-93
2023/07/26 06:50:45;;;;;;;7.03;6.32;;;;;;;;;;4978335;28;20054;-92
2023/07/26 06:53:13;;;;;;;8.73;7.82;;;;;;;;;;4959310;28;20483;-93
2023/07/26 06:55:40;;;;;;;10.18;6.70;;;;;;;;;;4996895;28;20039;-94
2023/07/26 06:58:08;;;;;;;11.18;7.47;;;;;;;;;;4983409;28;20047;-92
2023/07/26 07:00:37;;;;;;;7.85;7.05;;;;;;;;;;4965981;28;20058;-94
2023/07/26 07:03:06;;;;;;;16.50;8.20;;;;;;;;;;4982189;28;20054;-93
2023/07/26 07:05:36;;;;;;;7.22;6.57;;;;;;;;;;4996656;28;20070;-94
2023/07/26 07:08:05;;;;;;;10.18;7.00;;;;;;;;;;4984305;28;20053;-94
2023/07/26 07:10:33;;;;;;;7.45;6.75;;;;;;;;;;4987791;28;20046;-93
2023/07/26 07:13:00;;;;;;;8.65;7.05;;;;;;;;;;4979069;28;20849;-92
2023/07/26 07:15:28;;;;;;;8.82;7.93;;;;;;;;;;4986493;28;20042;-92
2023/07/26 07:17:58;;;;;;;8.63;7.82;;;;;;;;;;4983835;28;20027;-92
2023/07/26 07:20:26;;;;;;;8.05;7.25;;;;;;;;;;4988412;28;20064;-93
2023/07/26 07:22:54;;;;;;;8.75;7.95;;;;;;;;;;4994418;28;20061;-92
2023/07/26 07:25:21;;;;;;;9.40;7.45;;;;;;;;;;5002176;28;20039;-94
2023/07/26 07:27:49;;;;;;;8.38;7.50;;;;;;;;;;4966944;28;20055;-93
2023/07/26 07:30:16;;;;;;;8.15;7.32;;;;;;;;;;4964632;29;20504;-92
2023/07/26 07:32:44;;;;;;;9.25;6.43;;;;;;;;;;4982734;28;20207;-92
2023/07/26 07:35:11;;;;;;;8.82;7.93;;;;;;;;;;4966208;28;20046;-94
2023/07/26 07:37:40;;;;;;;7.93;7.22;;;;;;;;;;4988866;28;20035;-91
2023/07/26 07:40:09;;;;;;;7.38;6.57;;;;;;;;;;4972517;28;20031;-94
2023/07/26 07:42:36;;;;;;;8.60;7.00;;;;;;;;;;5002171;28;20037;-93
2023/07/26 07:45:04;;;;;;;7.93;7.20;;;;;;;;;;4998937;28;20069;-92
2023/07/26 07:47:32;;;;;;;6.88;6.13;;;;;;;;;;5000597;28;20039;-93
2023/07/26 07:49:59;;;;;;;8.32;6.68;;;;;;;;;;4985125;28;20046;-90
2023/07/26 07:52:26;;;;;;;7.63;6.72;;;;;;;;;;4995066;28;20035;-91
2023/07/26 07:54:55;;;;;;;8.52;6.43;;;;;;;;;;5003949;28;20060;-93
2023/07/26 07:57:23;;;;;;;7.47;6.70;;;;;;;;;;4971003;28;20049;-92
2023/07/26 07:59:53;;;;;;;6.13;5.50;;;;;;;;;;4987314;28;20046;-92
2023/07/26 08:02:21;;;;;;;7.18;5.78;;;;;;;;;;4969590;28;20048;-93
2023/07/26 08:04:48;;;;;;;8.15;6.07;;;;;;;;;;4989744;28;20043;-93
2023/07/26 08:07:16;;;;;;;7.32;6.65;;;;;;;;;;4994771;28;20045;-94
2023/07/26 08:09:43;;;;;;;8.82;6.28;;;;;;;;;;4998084;28;20050;-93
2023/07/26 08:12:12;;;;;;;8.73;5.55;;;;;;;;;;4984452;28;20046;-92
2023/07/26 08:14:40;;;;;;;7.82;5.70;;;;;;;;;;4976420;28;20057;-92
2023/07/26 08:17:07;;;;;;;9.27;6.57;;;;;;;;;;4969923;28;20045;-93
2023/07/26 08:19:35;;;;;;;6.70;6.00;;;;;;;;;;4980052;28;20050;-93
2023/07/26 08:22:03;;;;;;;6.07;5.47;;;;;;;;;;4968626;28;20058;-94
2023/07/26 08:24:31;;;;;;;5.25;4.78;;;;;;;;;;4978767;28;20061;-94
2023/07/26 08:26:59;;;;;;;7.82;5.20;;;;;;;;;;4999903;28;20042;-93
2023/07/26 08:29:27;;;;;;;7.90;4.32;;;;;;;;;;4985807;28;20043;-94
2023/07/26 08:31:55;;;;;;;5.68;5.00;;;;;;;;;;4988833;28;20046;-94
2023/07/26 08:34:23;;;;;;;6.55;4.18;;;;;;;;;;4997342;28;20051;-94
2023/07/26 08:36:50;;;;;;;4.30;3.90;;;;;;;;;;5003353;28;20058;-94
2023/07/26 08:39:17;;;;;;;7.35;4.68;;;;;;;;;;4990127;28;20057;-94
2023/07/26 08:41:45;;;;;;;5.70;3.90;;;;;;;;;;4988891;28;20052;-94
2023/07/26 08:44:17;;;;;;;4.93;4.43;;;;;;;;;;4983455;28;20054;-94
2023/07/26 08:46:47;;;;;;;3.90;3.50;;;;;;;;;;4986706;28;20054;-92
2023/07/26 08:49:15;;;;;;;5.38;4.88;;;;;;;;;;4961444;28;20563;-93
2023/07/26 08:51:43;;;;;;;6.30;4.05;;;;;;;;;;4983777;28;20055;-94
2023/07/26 08:54:11;;;;;;;3.88;3.55;;;;;;;;;;4971645;28;20056;-93
2023/07/26 08:56:39;;;;;;;5.13;3.85;;;;;;;;;;4972077;28;20064;-93
2023/07/26 08:59:09;;;;;;;5.20;4.10;;;;;;;;;;4987711;28;20038;-94
2023/07/26 09:01:37;;;;;;;6.38;4.38;;;;;;;;;;4981106;28;20022;-94
2023/07/26 09:04:10;;;;;;;4.03;3.65;;;;;;;;;;4966885;28;20075;-93
2023/07/26 09:06:41;;;;;;;13.48;4.72;;;;;;;;;;5005016;28;20033;-93
2023/07/26 09:09:09;;;;;;;3.22;3.03;;;;;;;;;;5005120;28;20034;-93
2023/07/26 09:11:49;;;;;;;5.65;5.13;;;;;;;;;;4964831;28;20047;-94
2023/07/26 09:14:19;;;;;;;4.93;3.50;;;;;;;;;;5005197;28;20041;-93
2023/07/26 09:16:47;;;;;;;3.95;3.55;;;;;;;;;;4996822;28;20038;-93
2023/07/26 09:19:20;;;;;;;4.28;3.33;;;;;;;;;;5017715;28;20022;-93
2023/07/26 09:21:47;;;;;;;3.85;3.50;;;;;;;;;;5006166;28;20034;-92
2023/07/26 09:24:17;;;;;;;4.85;3.08;;;;;;;;;;4989899;28;20025;-94
2023/07/26 09:26:46;;;;;;;5.35;3.65;;;;;;;;;;4989783;28;20038;-93
2023/07/26 09:29:15;;;;;;;5.30;3.45;;;;;;;;;;4991096;28;20040;-93
2023/07/26 09:31:43;;;;;;;3.97;3.55;;;;;;;;;;4994744;28;20037;-94
2023/07/26 09:34:13;;;;;;;3.67;3.15;;;;;;;;;;4997032;28;20037;-93
2023/07/26 09:36:47;;;;;;;4.05;3.65;;;;;;;;;;4981895;28;20030;-95
2023/07/26 09:39:16;;;;;;;4.00;2.78;;;;;;;;;;5008891;28;20034;-95
2023/07/26 09:41:45;;;;;;;4.47;2.80;;;;;;;;;;4981325;28;20045;-94
2023/07/26 09:44:16;;;;;;;3.00;2.70;;;;;;;;;;4985068;28;20051;-93
2023/07/26 09:46:53;;;;;;;4.63;3.13;;;;;;;;;;4965882;28;20034;-94
2023/07/26 09:49:22;;;;;;;3.38;2.65;;;;;;;;;;5006986;28;20112;-94
2023/07/26 09:51:54;;;;;;;3.50;2.67;;;;;;;;;;5008992;28;20060;-93
2023/07/26 09:54:30;;;;;;;4.07;2.55;;;;;;;;;;4993099;28;20041;-94
2023/07/26 09:56:58;;;;;;;5.03;3.25;;;;;;;;;;5012451;28;20042;-92
2023/07/26 09:59:30;;;;;;;3.53;2.88;;;;;;;;;;4975699;28;20049;-94
2023/07/26 10:02:03;;;;;;;2.63;2.42;;;;;;;;;;5009658;28;20023;-93
2023/07/26 10:04:38;;;;;;;5.50;2.85;;;;;;;;;;4998774;28;20031;-93
2023/07/26 10:07:13;;;;;;;2.67;2.47;;;;;;;;;;4976432;28;20045;-93
2023/07/26 10:09:43;;;;;;;2.58;2.38;;;;;;;;;;5009262;28;20054;-93
2023/07/26 10:12:11;;;;;;;3.80;2.58;;;;;;;;;;4993846;28;20037;-93
2023/07/26 10:14:42;;;;;;;3.30;2.88;;;;;;;;;;5005261;28;20031;-93
2023/07/26 10:17:11;;;;;;;4.80;2.97;;;;;;;;;;5005554;28;20038;-93
2023/07/26 10:19:39;;;;;;;2.55;2.35;;;;;;;;;;4996731;28;20030;-94
2023/07/26 10:22:08;;;;;;;3.30;2.45;;;;;;;;;;4985817;28;20070;-93
2023/07/26 10:24:37;;;;;;;5.13;3.67;;;;;;;;;;4995581;28;20038;-94
2023/07/26 10:27:05;;;;;;;2.78;2.38;;;;;;;;;;4993843;28;20030;-93
2023/07/26 10:29:33;;;;;;;2.55;2.35;;;;;;;;;;4998524;28;20027;-92
2023/07/26 10:32:04;;;;;;;2.95;2.15;;;;;;;;;;4995964;28;20022;-94
2023/07/26 10:34:34;;;;;;;3.22;2.30;;;;;;;;;;5007540;28;20034;-93
2023/07/26 10:37:15;;;;;;;3.40;2.63;;;;;;;;;;4991369;28;20043;-94
2023/07/26 10:39:48;;;;;;;4.07;2.10;;;;;;;;;;5004483;28;20044;-94
2023/07/26 10:42:24;;;;;;;3.38;2.33;;;;;;;;;;4999167;28;20064;-93
2023/07/26 10:44:53;;;;;;;2.25;1.85;;;;;;;;;;4997140;28;20041;-94
2023/07/26 10:47:21;;;;;;;2.80;2.33;;;;;;;;;;4995334;28;20114;-93
2023/07/26 10:49:49;;;;;;;2.05;1.80;;;;;;;;;;4976858;28;20048;-94
2023/07/26 10:52:17;;;;;;;2.00;1.80;;;;;;;;;;4989023;28;20057;-93
2023/07/26 10:54:47;;;;;;;1.95;1.80;;;;;;;;;;4983654;28;20035;-94
2023/07/26 10:57:22;;;;;;;2.20;1.67;;;;;;;;;;5008006;28;20039;-93
2023/07/26 10:59:58;;;;;;;4.45;2.28;;;;;;;;;;5008110;28;20046;-93
2023/07/26 11:02:39;;;;;;;2.92;1.80;;;;;;;;;;5012751;28;20034;-93
2023/07/26 11:05:11;;;;;;;1.88;1.73;;;;;;;;;;4995302;28;20047;-93
2023/07/26 11:07:59;;;;;;;2.17;1.90;;;;;;;;;;5009358;28;20022;-93
2023/07/26 11:10:30;;;;;;;2.45;1.90;;;;;;;;;;4991617;28;20050;-94
2023/07/26 11:13:11;;;;;;;2.08;1.80;;;;;;;;;;5009598;28;20035;-92
2023/07/26 11:15:40;;;;;;;4.25;2.08;;;;;;;;;;5014226;28;20026;-94
2023/07/26 11:18:10;;;;;;;2.03;1.83;;;;;;;;;;5010246;28;20022;-93
2023/07/26 11:20:39;;;;;;;3.55;1.73;;;;;;;;;;4985917;28;20053;-93
2023/07/26 11:23:18;;;;;;;2.65;2.45;;;;;;;;;;5011044;28;20034;-93
2023/07/26 11:25:48;;;;;;;3.15;1.80;;;;;;;;;;4989897;28;20038;-93
2023/07/26 11:28:16;;;;;;;2.38;1.95;;;;;;;;;;4987853;28;20034;-93
2023/07/26 11:30:47;;;;;;;2.95;1.70;;;;;;;;;;4990849;28;20061;-93
2023/07/26 11:33:31;;;;;;;3.58;2.20;;;;;;;;;;4989241;28;20027;-94
2023/07/26 11:36:03;;;;;;;3.47;1.95;;;;;;;;;;4991588;28;20038;-94
2023/07/26 11:38:30;;;;;;;4.70;2.60;;;;;;;;;;5005808;28;20042;-93
2023/07/26 11:41:00;;;;;;;1.75;1.65;;;;;;;;;;4990149;28;20034;-93
2023/07/26 11:43:28;;;;;;;2.55;1.50;;;;;;;;;;5002504;28;20045;-93
2023/07/26 11:45:57;;;;;;;2.28;1.80;;;;;;;;;;4982111;28;20049;-94
2023/07/26 11:48:26;;;;;;;5.30;2.20;;;;;;;;;;5001296;28;20041;-93
2023/07/26 11:50:59;;;;;;;1.75;1.63;;;;;;;;;;5000334;28;20043;-93
2023/07/26 11:53:32;;;;;;;1.75;1.55;;;;;;;;;;4996332;28;20047;-93
2023/07/26 11:56:02;;;;;;;1.83;1.35;;;;;;;;;;4965455;28;20061;-94
2023/07/26 11:58:33;;;;;;;2.30;1.48;;;;;;;;;;4982065;28;20042;-92
2023/07/26 12:01:02;;;;;;;2.58;1.50;;;;;;;;;;4990551;28;20056;-93
2023/07/26 12:03:30;;;;;;;1.80;1.63;;;;;;;;;;4993798;28;20035;-93
2023/07/26 12:05:57;;;;;;;2.35;2.15;;;;;;;;;;5003939;28;20054;-94
2023/07/26 12:08:29;;;;;;;3.17;1.85;;;;;;;;;;4984157;28;20042;-94
2023/07/26 12:11:06;;;;;;;1.65;1.55;;;;;;;;;;5012842;28;20049;-94
2023/07/26 12:13:34;;;;;;;2.72;2.00;;;;;;;;;;5006228;28;20027;-94
2023/07/26 12:16:03;;;;;;;1.90;1.52;;;;;;;;;;4973339;28;20069;-94
2023/07/26 12:18:30;;;;;;;2.88;2.08;;;;;;;;;;5017584;28;20030;-93
2023/07/26 12:21:01;;;;;;;2.70;1.63;;;;;;;;;;5000531;28;20382;-94
2023/07/26 12:23:48;;;;;;;2.35;1.70;;;;;;;;;;5007416;28;20049;-93
2023/07/26 12:26:20;;;;;;;2.10;1.52;;;;;;;;;;5006752;28;20029;-93
2023/07/26 12:28:48;;;;;;;1.95;1.80;;;;;;;;;;4997523;28;20042;-94
2023/07/26 12:31:19;;;;;;;5.00;2.28;;;;;;;;;;4982970;28;20031;-92
2023/07/26 12:33:54;;;;;;;2.00;1.70;;;;;;;;;;5005554;28;20041;-93
2023/07/26 12:36:24;;;;;;;2.13;1.83;;;;;;;;;;4999184;28;20027;-93
2023/07/26 12:38:52;;;;;;;3.58;2.20;;;;;;;;;;4997507;28;20046;-93
2023/07/26 12:41:23;;;;;;;4.28;1.88;;;;;;;;;;5015332;28;20034;-93
2023/07/26 12:43:57;;;;;;;2.22;1.70;;;;;;;;;;5005363;28;20063;-93
2023/07/26 12:46:25;;;;;;;7.30;2.40;;;;;;;;;;4990131;28;20037;-92
2023/07/26 12:48:54;;;;;;;2.55;1.85;;;;;;;;;;4983066;28;20041;-93
2023/07/26 12:51:25;;;;;;;3.25;1.98;;;;;;;;;;5014250;28;20031;-93
2023/07/26 12:54:02;;;;;;;2.67;2.28;;;;;;;;;;5007075;28;20037;-93
2023/07/26 12:56:31;;;;;;;3.05;2.70;;;;;;;;;;5013558;28;20031;-94
2023/07/26 12:59:03;;;;;;;6.75;3.40;;;;;;;;;;4988626;28;20031;-94
2023/07/26 13:01:33;;;;;;;12.82;4.38;;;;;;;;;;4993017;28;20043;-94
2023/07/26 13:04:00;;;;;;;8.73;3.78;;;;;;;;;;4988696;28;20061;-93
2023/07/26 13:06:27;;;;;;;6.15;3.15;;;;;;;;;;4986471;28;20827;-93
2023/07/26 13:08:55;;;;;;;6.13;3.83;;;;;;;;;;4962125;28;20051;-95
2023/07/26 13:11:25;;;;;;;9.75;3.35;;;;;;;;;;4993640;28;20031;-95
2023/07/26 13:13:54;;;;;;;3.72;3.00;;;;;;;;;;4994466;28;20057;-93
2023/07/26 13:16:21;;;;;;;3.42;3.13;;;;;;;;;;4957816;29;20055;-94
2023/07/26 13:18:51;;;;;;;4.70;3.10;;;;;;;;;;4970756;28;20055;-95
2023/07/26 13:21:19;;;;;;;4.03;3.28;;;;;;;;;;4982422;28;20050;-95
2023/07/26 13:23:46;;;;;;;11.25;3.53;;;;;;;;;;4958894;28;20049;-95
2023/07/26 13:26:15;;;;;;;4.30;3.20;;;;;;;;;;4984215;28;20057;-94
2023/07/26 13:28:43;;;;;;;3.30;2.40;;;;;;;;;;4992566;28;20054;-94
2023/07/26 13:31:12;;;;;;;3.55;3.10;;;;;;;;;;5000435;28;20050;-95
2023/07/26 13:33:39;;;;;;;5.55;3.17;;;;;;;;;;4980247;28;20065;-93
2023/07/26 13:36:07;;;;;;;5.65;2.75;;;;;;;;;;4984931;28;20051;-94
2023/07/26 13:38:34;;;;;;;3.95;2.67;;;;;;;;;;4984417;28;20054;-94
2023/07/26 13:41:02;;;;;;;2.67;2.35;;;;;;;;;;4991969;28;20058;-93
2023/07/26 13:43:30;;;;;;;3.35;2.95;;;;;;;;;;4977667;28;20500;-94
2023/07/26 13:45:58;;;;;;;3.63;3.28;;;;;;;;;;5004654;28;20054;-94
2023/07/26 13:48:27;;;;;;;6.45;3.70;;;;;;;;;;4991251;28;20061;-93
2023/07/26 13:50:57;;;;;;;4.80;3.33;;;;;;;;;;5000474;28;20038;-94
2023/07/26 13:53:25;;;;;;;3.95;2.83;;;;;;;;;;4997108;28;20038;-94
2023/07/26 13:55:52;;;;;;;3.92;3.13;;;;;;;;;;5000633;28;20069;-94
2023/07/26 13:58:20;;;;;;;3.65;3.35;;;;;;;;;;4990432;28;20053;-94
2023/07/26 14:00:49;;;;;;;3.20;2.90;;;;;;;;;;5001136;28;20043;-94
2023/07/26 14:03:19;;;;;;;3.55;2.72;;;;;;;;;;4975264;28;20062;-93
2023/07/26 14:05:48;;;;;;;4.28;3.17;;;;;;;;;;5004697;28;20055;-93
2023/07/26 14:08:19;;;;;;;3.95;2.83;;;;;;;;;;5001516;28;20055;-93
2023/07/26 14:10:46;;;;;;;4.22;2.88;;;;;;;;;;4986357;28;20034;-94
2023/07/26 14:13:14;;;;;;;3.95;3.60;;;;;;;;;;4978907;28;20757;-93
2023/07/26 14:15:42;;;;;;;5.38;3.45;;;;;;;;;;4994332;28;20060;-94
2023/07/26 14:18:09;;;;;;;4.20;3.08;;;;;;;;;;4991956;28;20803;-94
2023/07/26 14:20:37;;;;;;;3.00;2.78;;;;;;;;;;4979365;28;20050;-94
2023/07/26 14:23:08;;;;;;;3.45;2.67;;;;;;;;;;4977218;28;20060;-95
2023/07/26 14:25:35;;;;;;;3.42;2.72;;;;;;;;;;4997322;28;20502;-93
2023/07/26 14:28:03;;;;;;;4.03;3.15;;;;;;;;;;4999995;28;20050;-94
2023/07/26 14:30:31;;;;;;;5.15;3.20;;;;;;;;;;4949937;28;20248;-95
2023/07/26 14:32:58;;;;;;;3.70;3.15;;;;;;;;;;4982954;28;20050;-95
2023/07/26 14:35:26;;;;;;;5.57;2.90;;;;;;;;;;4978006;28;20050;-94
2023/07/26 14:37:56;;;;;;;3.28;2.97;;;;;;;;;;4970710;28;20054;-93
2023/07/26 14:40:25;;;;;;;3.60;3.08;;;;;;;;;;4990838;28;20043;-95
2023/07/26 14:42:52;;;;;;;3.17;2.58;;;;;;;;;;4996569;28;20053;-94
2023/07/26 14:45:20;;;;;;;2.72;1.70;;;;;;;;;;4999785;28;20054;-95
2023/07/26 14:47:47;;;;;;;2.65;2.20;;;;;;;;;;4971514;28;20508;-94
2023/07/26 14:50:17;;;;;;;2.33;1.83;;;;;;;;;;4979892;28;20051;-94